Time;durP1;ratioP1;P1;durP2;ratioP2;P2;SDS_P1;SDS_P2;PMS_P1;PMS_P2;Temp;Humidity;BMP_temperature;BMP_pressure;BME280_temperature;BME280_humidity;BME280_pressure;Samples;Min_cycle;Max_cycle;Signal;HPM_P1;HPM_P2
2022/09/11 00:01:14;;;;;;;2.80;1.60;;;13.70;99.90;;;;;;5021662;28;20901;-59
2022/09/11 00:03:44;;;;;;;2.03;1.40;;;13.70;99.90;;;;;;5022682;28;20438;-58
2022/09/11 00:06:13;;;;;;;1.37;1.27;;;13.70;99.90;;;;;;5021293;28;20972;-60
2022/09/11 00:08:39;;;;;;;1.70;1.60;;;13.70;99.90;;;;;;5022859;28;20869;-58
2022/09/11 00:11:11;;;;;;;2.60;1.80;;;13.70;99.90;;;;;;5022079;28;20462;-58
2022/09/11 00:13:38;;;;;;;2.67;1.40;;;13.70;99.90;;;;;;5024413;28;20458;-58
2022/09/11 00:16:18;;;;;;;1.97;1.60;;;13.70;99.90;;;;;;5026678;28;20433;-58
2022/09/11 00:18:45;;;;;;;6.50;1.87;;;13.70;99.90;;;;;;5017788;28;21832;-58
2022/09/11 00:21:11;;;;;;;1.77;1.40;;;13.70;99.90;;;;;;5021465;28;20472;-58
2022/09/11 00:23:37;;;;;;;4.13;1.57;;;13.60;99.90;;;;;;5023915;28;20962;-59
2022/09/11 00:26:03;;;;;;;3.67;1.53;;;13.60;99.90;;;;;;5025495;28;20550;-56
2022/09/11 00:28:29;;;;;;;3.53;1.50;;;13.60;99.90;;;;;;5029359;28;20623;-55
2022/09/11 00:30:57;;;;;;;1.47;1.37;;;13.60;99.90;;;;;;5026550;28;20529;-56
2022/09/11 00:33:22;;;;;;;2.30;1.47;;;13.50;99.90;;;;;;5023740;28;20485;-56
2022/09/11 00:35:57;;;;;;;1.60;1.50;;;13.50;99.90;;;;;;5027311;28;20921;-56
2022/09/11 00:38:26;;;;;;;6.07;1.40;;;13.50;99.90;;;;;;5025581;28;20226;-56
2022/09/11 00:40:52;;;;;;;1.40;1.30;;;13.40;99.90;;;;;;5019320;28;20427;-56
2022/09/11 00:43:18;;;;;;;4.70;1.60;;;13.40;99.90;;;;;;5027247;28;20462;-56
2022/09/11 00:45:46;;;;;;;1.40;1.30;;;13.40;99.90;;;;;;5019432;28;20525;-55
2022/09/11 00:48:20;;;;;;;1.90;1.17;;;13.30;99.90;;;;;;5026775;28;20186;-56
2022/09/11 00:50:47;;;;;;;1.50;1.40;;;13.30;99.90;;;;;;5027907;28;20417;-55
2022/09/11 00:53:16;;;;;;;1.20;1.20;;;13.30;99.90;;;;;;5004445;28;20455;-56
2022/09/11 00:55:46;;;;;;;2.80;1.27;;;13.20;99.90;;;;;;5026047;28;20435;-56
2022/09/11 00:58:17;;;;;;;3.57;1.50;;;13.20;99.90;;;;;;5025179;28;20466;-58
2022/09/11 01:00:43;;;;;;;2.47;1.43;;;13.20;99.90;;;;;;5026832;28;20438;-58
2022/09/11 01:03:09;;;;;;;4.13;1.50;;;13.20;99.90;;;;;;5028012;28;20482;-58
2022/09/11 01:05:38;;;;;;;1.40;1.30;;;13.20;99.90;;;;;;5024802;28;20434;-59
2022/09/11 01:08:05;;;;;;;2.33;1.53;;;13.20;99.90;;;;;;5026227;28;20492;-59
2022/09/11 01:11:08;;;;;;;1.50;1.37;;;13.20;99.90;;;;;;5023497;28;20434;-58
2022/09/11 01:13:46;;;;;;;4.70;1.40;;;13.20;99.90;;;;;;5014324;28;20944;-55
2022/09/11 01:16:27;;;;;;;2.07;1.47;;;13.20;99.90;;;;;;5024669;28;20448;-55
2022/09/11 01:19:03;;;;;;;1.60;1.50;;;13.20;99.90;;;;;;5025878;28;20824;-55
2022/09/11 01:21:55;;;;;;;6.03;1.43;;;13.20;99.90;;;;;;5021143;28;20517;-56
2022/09/11 01:25:00;;;;;;;2.80;1.70;;;13.30;99.90;;;;;;5020391;28;22433;-58
2022/09/11 01:27:49;;;;;;;3.17;1.70;;;13.30;99.90;;;;;;4986315;28;21103;-58
2022/09/11 01:30:17;;;;;;;5.60;1.63;;;13.30;99.90;;;;;;5020842;28;20517;-58
2022/09/11 01:33:05;;;;;;;3.23;1.73;;;13.30;99.90;;;;;;5020206;28;20462;-57
2022/09/11 01:35:55;;;;;;;2.20;1.53;;;13.30;99.90;;;;;;5018360;28;21036;-56
2022/09/11 01:38:30;;;;;;;4.60;1.97;;;13.30;99.90;;;;;;5028802;28;20437;-56
2022/09/11 01:41:07;;;;;;;3.27;1.73;;;13.20;99.90;;;;;;5029053;28;20433;-55
2022/09/11 01:43:38;;;;;;;4.97;2.30;;;13.20;99.90;;;;;;5021323;28;20442;-56
2022/09/11 01:46:06;;;;;;;3.27;1.70;;;13.20;99.90;;;;;;5018006;28;20422;-55
2022/09/11 01:48:45;;;;;;;4.63;1.87;;;13.20;99.90;;;;;;5018253;28;20483;-56
2022/09/11 01:51:20;;;;;;;2.37;1.70;;;13.30;99.90;;;;;;5020194;28;20430;-56
2022/09/11 01:53:49;;;;;;;3.20;2.20;;;13.20;99.90;;;;;;5021427;28;20457;-56
2022/09/11 01:56:22;;;;;;;5.10;1.93;;;13.20;99.90;;;;;;5025149;28;20418;-56
2022/09/11 01:58:54;;;;;;;3.20;1.80;;;13.20;99.90;;;;;;5026173;28;20758;-56
2022/09/11 02:01:26;;;;;;;4.00;2.43;;;13.20;99.90;;;;;;5022556;28;20430;-55
2022/09/11 02:04:06;;;;;;;2.63;1.70;;;13.20;99.90;;;;;;5024894;28;20509;-55
2022/09/11 02:06:43;;;;;;;1.60;1.50;;;13.20;99.90;;;;;;5020513;28;20509;-56
2022/09/11 02:09:12;;;;;;;2.40;1.87;;;13.20;99.90;;;;;;5018245;28;20434;-55
2022/09/11 02:11:40;;;;;;;2.80;1.70;;;13.10;99.90;;;;;;5019805;28;20465;-55
2022/09/11 02:14:16;;;;;;;3.57;2.10;;;13.10;99.90;;;;;;5021159;28;20553;-55
2022/09/11 02:16:51;;;;;;;3.53;2.00;;;13.10;99.90;;;;;;5019713;28;20517;-56
2022/09/11 02:19:19;;;;;;;2.30;1.70;;;13.10;99.90;;;;;;5018871;28;20448;-56
2022/09/11 02:21:46;;;;;;;4.13;2.20;;;13.10;99.90;;;;;;5019974;28;20442;-56
2022/09/11 02:24:14;;;;;;;2.10;1.73;;;13.00;99.90;;;;;;5018499;28;20807;-56
2022/09/11 02:26:48;;;;;;;4.40;1.87;;;13.00;99.90;;;;;;5019292;28;20434;-55
2022/09/11 02:29:14;;;;;;;2.53;1.77;;;13.00;99.90;;;;;;5026951;28;20441;-57
2022/09/11 02:31:41;;;;;;;2.63;2.07;;;13.00;99.90;;;;;;5024705;28;20458;-56
2022/09/11 02:34:09;;;;;;;2.10;1.60;;;13.00;99.90;;;;;;5020620;28;21231;-56
2022/09/11 02:37:16;;;;;;;1.93;1.47;;;13.00;99.90;;;;;;5016226;28;20435;-56
2022/09/11 02:40:11;;;;;;;3.17;1.70;;;13.00;99.90;;;;;;5032245;28;20446;-56
2022/09/11 02:43:00;;;;;;;2.23;1.60;;;13.00;99.90;;;;;;5025156;28;20533;-56
2022/09/11 02:45:40;;;;;;;3.57;1.93;;;13.00;99.90;;;;;;5013061;28;20520;-56
2022/09/11 02:48:24;;;;;;;2.40;1.53;;;12.90;99.90;;;;;;5015640;28;20449;-56
2022/09/11 02:51:08;;;;;;;6.30;2.00;;;12.90;99.90;;;;;;5013537;28;20517;-55
2022/09/11 02:54:17;;;;;;;3.40;1.53;;;12.90;99.90;;;;;;5018047;28;21015;-56
2022/09/11 02:57:24;;;;;;;3.73;1.60;;;12.90;99.90;;;;;;5021337;28;20423;-56
2022/09/11 02:59:55;;;;;;;1.70;1.43;;;12.90;99.90;;;;;;5022417;28;20437;-56
2022/09/11 03:02:23;;;;;;;5.53;1.50;;;12.90;99.90;;;;;;5016955;28;20450;-56
2022/09/11 03:04:49;;;;;;;2.37;1.53;;;12.90;99.90;;;;;;5019333;28;20471;-56
2022/09/11 03:07:15;;;;;;;5.37;1.93;;;12.90;99.90;;;;;;5020626;28;20937;-56
2022/09/11 03:09:42;;;;;;;2.30;1.47;;;12.90;99.90;;;;;;5023162;28;20194;-56
2022/09/11 03:12:07;;;;;;;2.47;1.57;;;12.90;99.90;;;;;;5021298;28;20867;-56
2022/09/11 03:14:33;;;;;;;6.23;1.80;;;12.90;99.90;;;;;;5018087;28;20528;-56
2022/09/11 03:16:59;;;;;;;5.17;1.40;;;12.80;99.90;;;;;;5024739;28;20172;-56
2022/09/11 03:19:24;;;;;;;2.50;1.80;;;12.80;99.90;;;;;;5023133;28;20183;-56
2022/09/11 03:21:50;;;;;;;3.43;1.60;;;12.80;99.90;;;;;;5025653;28;20184;-56
2022/09/11 03:24:15;;;;;;;8.50;1.50;;;12.80;99.90;;;;;;5023311;28;20529;-56
2022/09/11 03:26:41;;;;;;;2.53;1.77;;;12.80;99.90;;;;;;5026565;28;20172;-55
2022/09/11 03:29:07;;;;;;;1.93;1.60;;;12.90;99.90;;;;;;5022414;28;20721;-56
2022/09/11 03:31:33;;;;;;;2.13;1.70;;;12.90;99.90;;;;;;5023398;28;20589;-56
2022/09/11 03:33:58;;;;;;;2.57;1.47;;;12.90;99.90;;;;;;5017753;28;20187;-56
2022/09/11 03:36:24;;;;;;;4.13;1.70;;;12.90;99.90;;;;;;5020193;28;20546;-56
2022/09/11 03:38:51;;;;;;;3.00;1.80;;;12.90;99.90;;;;;;5024693;28;20171;-56
2022/09/11 03:41:17;;;;;;;4.00;1.60;;;12.90;99.90;;;;;;5023139;28;20193;-56
2022/09/11 03:43:43;;;;;;;5.07;1.63;;;12.90;99.90;;;;;;5018703;28;20422;-56
2022/09/11 03:46:09;;;;;;;4.17;1.90;;;12.90;99.90;;;;;;5018350;28;20437;-56
2022/09/11 03:48:35;;;;;;;4.57;1.80;;;12.90;99.90;;;;;;5024179;28;20172;-56
2022/09/11 03:51:01;;;;;;;2.50;2.00;;;12.90;99.90;;;;;;5028386;28;20421;-56
2022/09/11 03:53:27;;;;;;;2.43;1.70;;;12.90;99.90;;;;;;5026593;28;20469;-56
2022/09/11 03:55:53;;;;;;;6.70;1.70;;;12.90;99.90;;;;;;5026909;28;20438;-57
2022/09/11 03:58:19;;;;;;;2.90;1.80;;;13.00;99.90;;;;;;5027389;28;20187;-57
2022/09/11 04:00:46;;;;;;;3.13;1.97;;;12.90;99.90;;;;;;5028003;28;20426;-57
2022/09/11 04:03:14;;;;;;;5.10;1.63;;;13.00;99.90;;;;;;5022866;28;20195;-57
2022/09/11 04:05:40;;;;;;;1.87;1.60;;;13.00;99.90;;;;;;5024987;28;20434;-57
2022/09/11 04:08:06;;;;;;;4.43;1.90;;;13.00;99.90;;;;;;5029239;28;20434;-57
2022/09/11 04:10:33;;;;;;;1.87;1.40;;;13.00;99.90;;;;;;5022219;28;20438;-56
2022/09/11 04:13:00;;;;;;;4.63;1.70;;;13.00;99.90;;;;;;5028375;28;20528;-56
2022/09/11 04:15:26;;;;;;;4.03;1.60;;;13.00;99.90;;;;;;5030753;28;20405;-56
2022/09/11 04:17:52;;;;;;;8.50;2.17;;;13.00;99.90;;;;;;5030719;28;20901;-56
2022/09/11 04:20:18;;;;;;;1.50;1.30;;;13.00;99.90;;;;;;5030115;28;20176;-56
2022/09/11 04:22:43;;;;;;;2.90;1.80;;;13.10;99.90;;;;;;5030894;28;20533;-56
2022/09/11 04:25:10;;;;;;;4.03;1.80;;;13.10;99.90;;;;;;5030977;28;20218;-56
2022/09/11 04:27:35;;;;;;;2.33;1.50;;;13.10;99.90;;;;;;5048142;22;20647;-58
2022/09/11 04:30:01;;;;;;;3.93;2.00;;;13.10;99.90;;;;;;5029594;28;20450;-59
2022/09/11 04:32:28;;;;;;;2.60;1.80;;;13.10;99.90;;;;;;5031236;28;20168;-59
2022/09/11 04:34:53;;;;;;;4.03;1.87;;;13.10;99.90;;;;;;5030607;28;20252;-58
2022/09/11 04:37:19;;;;;;;1.50;1.40;;;13.10;99.90;;;;;;5032409;28;20872;-59
2022/09/11 04:39:47;;;;;;;3.37;2.33;;;13.10;99.90;;;;;;5033245;28;20246;-60
2022/09/11 04:42:13;;;;;;;1.73;1.60;;;13.10;99.90;;;;;;5029798;28;20442;-60
2022/09/11 04:44:39;;;;;;;2.20;1.50;;;13.10;99.90;;;;;;5031216;28;20406;-60
2022/09/11 04:47:05;;;;;;;5.53;1.80;;;13.10;99.90;;;;;;5031833;28;20835;-60
2022/09/11 04:49:31;;;;;;;3.20;1.80;;;13.10;99.90;;;;;;5020855;28;20249;-60
2022/09/11 04:52:01;;;;;;;4.93;1.80;;;13.10;99.90;;;;;;5030471;28;20174;-60
2022/09/11 04:54:27;;;;;;;2.40;1.77;;;13.10;99.90;;;;;;5029941;28;20465;-60
2022/09/11 04:56:53;;;;;;;4.97;1.77;;;13.10;99.90;;;;;;5012630;28;20440;-60
2022/09/11 04:59:21;;;;;;;4.70;1.87;;;13.10;99.90;;;;;;5030167;28;20175;-60
2022/09/11 05:01:47;;;;;;;5.20;2.10;;;13.10;99.90;;;;;;5031546;28;20480;-60
2022/09/11 05:04:14;;;;;;;3.90;2.30;;;13.10;99.90;;;;;;5025860;28;20435;-60
2022/09/11 05:06:41;;;;;;;3.03;2.10;;;13.10;99.90;;;;;;5032128;28;20430;-61
2022/09/11 05:09:08;;;;;;;2.60;2.03;;;13.10;99.90;;;;;;5031650;28;20493;-60
2022/09/11 05:11:35;;;;;;;2.33;2.13;;;13.10;99.90;;;;;;5020102;28;20426;-60
2022/09/11 05:14:01;;;;;;;2.10;1.97;;;13.10;99.90;;;;;;5029811;28;20493;-60
2022/09/11 05:16:29;;;;;;;2.23;2.00;;;13.10;99.90;;;;;;5027574;28;20446;-60
2022/09/11 05:18:56;;;;;;;1.80;1.70;;;13.10;99.90;;;;;;5030648;28;20437;-60
2022/09/11 05:21:23;;;;;;;3.47;1.80;;;13.10;99.90;;;;;;5026936;28;21069;-60
2022/09/11 05:23:54;;;;;;;2.77;1.70;;;13.10;99.90;;;;;;5027817;28;20422;-60
2022/09/11 05:26:21;;;;;;;2.10;1.60;;;13.10;99.90;;;;;;5030166;28;20477;-60
2022/09/11 05:28:52;;;;;;;1.70;1.60;;;13.10;99.90;;;;;;5031986;28;21098;-60
2022/09/11 05:31:17;;;;;;;3.27;1.60;;;13.10;99.90;;;;;;5027667;28;20439;-60
2022/09/11 05:33:44;;;;;;;2.70;1.40;;;13.10;99.90;;;;;;5029765;28;20474;-60
2022/09/11 05:36:11;;;;;;;1.73;1.63;;;13.10;99.90;;;;;;5023257;28;20543;-60
2022/09/11 05:38:37;;;;;;;2.57;1.70;;;13.10;99.90;;;;;;5025764;28;20553;-59
2022/09/11 05:41:05;;;;;;;2.03;1.57;;;13.10;99.90;;;;;;5031494;28;20402;-60
2022/09/11 05:43:34;;;;;;;2.77;1.67;;;13.10;99.90;;;;;;5030553;28;20438;-60
2022/09/11 05:46:00;;;;;;;3.30;1.70;;;13.10;99.90;;;;;;5011865;28;20440;-60
2022/09/11 05:48:37;;;;;;;2.47;1.70;;;13.20;99.90;;;;;;5021483;28;20962;-60
2022/09/11 05:51:21;;;;;;;1.97;1.80;;;13.20;99.90;;;;;;5029639;28;20809;-60
2022/09/11 05:53:57;;;;;;;2.23;2.00;;;13.20;99.90;;;;;;5026656;28;21003;-60
2022/09/11 05:56:24;;;;;;;3.50;1.50;;;13.20;99.90;;;;;;5029059;28;20860;-60
2022/09/11 05:58:50;;;;;;;4.93;1.73;;;13.30;99.90;;;;;;5022037;28;20473;-60
2022/09/11 06:01:24;;;;;;;3.00;1.60;;;13.30;99.90;;;;;;5026700;28;20442;-60
2022/09/11 06:03:51;;;;;;;1.87;1.40;;;13.30;99.90;;;;;;5028216;28;20501;-60
2022/09/11 06:06:18;;;;;;;4.90;1.50;;;13.30;99.90;;;;;;5028834;28;21039;-60
2022/09/11 06:08:43;;;;;;;2.57;1.73;;;13.40;99.90;;;;;;5028765;28;20438;-59
2022/09/11 06:11:12;;;;;;;2.00;1.53;;;13.40;99.90;;;;;;5028804;28;21120;-60
2022/09/11 06:13:39;;;;;;;3.03;1.80;;;13.40;99.90;;;;;;5027944;28;20286;-60
2022/09/11 06:16:10;;;;;;;2.37;1.60;;;13.40;99.90;;;;;;5027822;28;20422;-60
2022/09/11 06:18:36;;;;;;;6.40;1.60;;;13.50;99.90;;;;;;5029087;28;20543;-60
2022/09/11 06:21:07;;;;;;;1.93;1.73;;;13.50;99.90;;;;;;5026150;28;20474;-60
2022/09/11 06:23:34;;;;;;;1.80;1.70;;;13.50;99.90;;;;;;5027331;28;20445;-59
2022/09/11 06:26:10;;;;;;;5.10;1.73;;;13.60;99.90;;;;;;5019558;28;20438;-59
2022/09/11 06:28:37;;;;;;;6.67;2.77;;;13.60;99.90;;;;;;5023413;28;20449;-61
2022/09/11 06:31:04;;;;;;;5.70;2.50;;;13.60;99.90;;;;;;5023831;28;20460;-60
2022/09/11 06:33:37;;;;;;;2.80;1.87;;;13.70;99.90;;;;;;5022272;28;20462;-60
2022/09/11 06:36:05;;;;;;;4.50;2.10;;;13.70;99.90;;;;;;5022331;28;20430;-60
2022/09/11 06:38:31;;;;;;;2.27;1.80;;;13.80;99.90;;;;;;5027327;28;20435;-60
2022/09/11 06:41:01;;;;;;;2.00;1.90;;;13.80;99.90;;;;;;5027848;28;20449;-60
2022/09/11 06:43:27;;;;;;;3.70;1.60;;;13.80;99.90;;;;;;5020025;28;20191;-59
2022/09/11 06:45:52;;;;;;;5.80;1.90;;;13.80;99.90;;;;;;5027036;28;20478;-60
2022/09/11 06:48:18;;;;;;;2.73;2.13;;;13.80;99.90;;;;;;5022385;28;20434;-60
2022/09/11 06:50:44;;;;;;;2.13;1.73;;;13.80;99.90;;;;;;5023253;28;20183;-59
2022/09/11 06:53:11;;;;;;;11.90;1.97;;;13.80;99.90;;;;;;5024384;28;20870;-60
2022/09/11 06:55:38;;;;;;;2.53;1.80;;;13.90;99.90;;;;;;5025321;28;20310;-59
2022/09/11 06:58:04;;;;;;;2.70;1.80;;;13.90;99.90;;;;;;5023896;28;20915;-60
2022/09/11 07:00:30;;;;;;;4.43;1.53;;;13.90;99.90;;;;;;5025829;28;20569;-60
2022/09/11 07:02:55;;;;;;;1.90;1.37;;;14.00;99.90;;;;;;5023200;28;20541;-60
2022/09/11 07:05:22;;;;;;;3.10;1.83;;;14.00;99.90;;;;;;5019582;28;20429;-60
2022/09/11 07:07:49;;;;;;;2.10;1.60;;;14.00;99.90;;;;;;5023775;28;20636;-60
2022/09/11 07:10:15;;;;;;;13.83;1.67;;;14.10;99.90;;;;;;5023889;28;20438;-60
2022/09/11 07:12:41;;;;;;;1.83;1.70;;;14.10;99.90;;;;;;5026816;28;20430;-60
2022/09/11 07:15:07;;;;;;;1.97;1.60;;;14.10;99.90;;;;;;5025378;28;20816;-60
2022/09/11 07:17:33;;;;;;;6.30;2.00;;;14.20;99.90;;;;;;5018149;28;20321;-61
2022/09/11 07:19:59;;;;;;;5.13;1.90;;;14.20;99.90;;;;;;5017472;28;20937;-60
2022/09/11 07:22:25;;;;;;;4.40;1.70;;;14.20;99.90;;;;;;5022637;28;20176;-60
2022/09/11 07:24:54;;;;;;;2.13;1.93;;;14.20;99.90;;;;;;5026891;28;20266;-60
2022/09/11 07:27:20;;;;;;;3.67;2.13;;;14.20;99.90;;;;;;5026122;28;20199;-60
2022/09/11 07:29:46;;;;;;;2.90;2.00;;;14.30;99.90;;;;;;5022282;28;20509;-61
2022/09/11 07:32:11;;;;;;;2.00;1.90;;;14.30;99.90;;;;;;5023796;28;21040;-59
2022/09/11 07:34:37;;;;;;;3.47;1.90;;;14.40;99.90;;;;;;5020720;28;20939;-61
2022/09/11 07:37:03;;;;;;;4.20;1.60;;;14.40;99.90;;;;;;5023420;28;20698;-58
2022/09/11 07:39:29;;;;;;;4.67;2.17;;;14.40;99.90;;;;;;5026500;28;20188;-59
2022/09/11 07:41:54;;;;;;;4.33;2.00;;;14.50;99.90;;;;;;5025681;28;20179;-58
2022/09/11 07:44:21;;;;;;;4.90;1.70;;;14.50;99.90;;;;;;5023687;28;20203;-59
2022/09/11 07:46:47;;;;;;;1.73;1.50;;;14.60;99.90;;;;;;5024130;28;20211;-58
2022/09/11 07:49:13;;;;;;;2.63;1.83;;;14.70;99.90;;;;;;5024586;28;20437;-58
2022/09/11 07:51:38;;;;;;;2.13;1.40;;;14.70;99.90;;;;;;5024390;28;20310;-60
2022/09/11 07:54:04;;;;;;;1.80;1.60;;;14.80;99.90;;;;;;5021748;28;20199;-61
2022/09/11 07:56:32;;;;;;;5.87;1.67;;;14.80;99.90;;;;;;5024484;28;20203;-60
2022/09/11 07:58:57;;;;;;;2.57;1.93;;;14.80;99.90;;;;;;5024425;28;20172;-60
2022/09/11 08:01:26;;;;;;;2.17;1.77;;;14.80;99.90;;;;;;5029373;28;20505;-60
2022/09/11 08:03:58;;;;;;;2.97;1.87;;;14.90;99.90;;;;;;5026296;28;20541;-61
2022/09/11 08:06:25;;;;;;;4.03;1.90;;;14.90;99.90;;;;;;5019409;28;20533;-62
2022/09/11 08:09:00;;;;;;;4.57;1.70;;;14.90;99.90;;;;;;5019636;28;20446;-62
2022/09/11 08:11:27;;;;;;;2.50;1.80;;;15.00;99.90;;;;;;5018208;28;20814;-61
2022/09/11 08:13:54;;;;;;;2.70;1.53;;;15.00;99.90;;;;;;5018087;28;21016;-62
2022/09/11 08:16:22;;;;;;;2.20;1.70;;;15.00;99.90;;;;;;5020013;28;20458;-62
2022/09/11 08:18:48;;;;;;;1.67;1.50;;;15.10;99.90;;;;;;5027899;28;20442;-62
2022/09/11 08:21:14;;;;;;;8.83;2.00;;;15.10;99.90;;;;;;5025255;28;20437;-62
2022/09/11 08:23:42;;;;;;;1.67;1.57;;;15.10;99.90;;;;;;5026767;28;20262;-63
2022/09/11 08:26:30;;;;;;;2.33;2.10;;;15.20;99.90;;;;;;5030435;28;20565;-62
2022/09/11 08:28:58;;;;;;;3.40;1.80;;;15.20;98.50;;;;;;5022754;28;21097;-62
2022/09/11 08:31:25;;;;;;;2.20;2.00;;;15.20;98.80;;;;;;5019253;28;20453;-62
2022/09/11 08:33:52;;;;;;;2.20;2.07;;;15.30;98.40;;;;;;5020258;28;20450;-64
2022/09/11 08:36:18;;;;;;;4.63;2.30;;;15.40;97.70;;;;;;5024477;28;20449;-64
2022/09/11 08:38:45;;;;;;;3.27;2.03;;;15.40;97.60;;;;;;5026974;28;20435;-64
2022/09/11 08:41:24;;;;;;;4.10;2.43;;;15.50;95.90;;;;;;5031241;28;20469;-64
2022/09/11 08:43:55;;;;;;;5.93;3.60;;;15.50;96.00;;;;;;5019718;28;20438;-64
2022/09/11 08:46:25;;;;;;;2.37;2.17;;;15.60;95.40;;;;;;5021544;28;20900;-63
2022/09/11 08:49:23;;;;;;;3.20;2.10;;;15.70;95.00;;;;;;5023400;28;20438;-64
2022/09/11 08:51:52;;;;;;;6.07;3.10;;;15.70;94.20;;;;;;5020977;28;20509;-63
2022/09/11 08:54:28;;;;;;;3.83;2.10;;;15.80;94.20;;;;;;5022855;28;20460;-59
2022/09/11 08:57:15;;;;;;;3.57;2.07;;;15.90;93.20;;;;;;5016548;28;20492;-61
2022/09/11 08:59:49;;;;;;;3.73;2.70;;;16.00;93.60;;;;;;5023960;28;20792;-62
2022/09/11 09:02:17;;;;;;;5.77;2.10;;;16.10;92.00;;;;;;5025929;28;20426;-61
2022/09/11 09:05:07;;;;;;;3.17;2.40;;;16.20;92.10;;;;;;5029019;28;20484;-61
2022/09/11 09:08:03;;;;;;;5.30;2.03;;;16.40;91.90;;;;;;5016231;28;20454;-61
2022/09/11 09:10:32;;;;;;;4.57;2.40;;;16.50;89.70;;;;;;5019409;28;20462;-61
2022/09/11 09:13:31;;;;;;;3.60;2.30;;;16.60;87.40;;;;;;5025136;28;20449;-62
2022/09/11 09:16:01;;;;;;;3.40;2.37;;;16.70;87.90;;;;;;5024057;28;20480;-62
2022/09/11 09:18:36;;;;;;;1.80;1.70;;;16.70;89.20;;;;;;5026133;28;20419;-62
2022/09/11 09:21:09;;;;;;;4.83;2.77;;;16.80;86.70;;;;;;5030462;28;20431;-62
2022/09/11 09:23:42;;;;;;;3.03;2.20;;;16.80;88.40;;;;;;5024007;28;21015;-61
2022/09/11 09:26:16;;;;;;;2.33;2.13;;;16.80;88.40;;;;;;5031001;28;20509;-62
2022/09/11 09:28:45;;;;;;;3.97;2.10;;;16.90;84.00;;;;;;5027759;28;20471;-62
2022/09/11 09:31:14;;;;;;;5.63;2.17;;;16.80;83.30;;;;;;5026925;28;20403;-61
2022/09/11 09:33:45;;;;;;;3.13;2.07;;;16.90;85.40;;;;;;5024114;28;20458;-61
2022/09/11 09:36:12;;;;;;;3.50;2.07;;;16.80;83.10;;;;;;5023874;28;20441;-62
2022/09/11 09:38:38;;;;;;;3.53;2.07;;;16.80;83.10;;;;;;5023326;28;20488;-62
2022/09/11 09:41:07;;;;;;;2.17;1.80;;;16.80;83.90;;;;;;5030192;28;20418;-62
2022/09/11 09:43:56;;;;;;;3.10;2.20;;;16.70;84.00;;;;;;5022540;28;20211;-62
2022/09/11 09:46:27;;;;;;;4.00;2.17;;;16.60;87.30;;;;;;5030211;28;20422;-61
2022/09/11 09:48:54;;;;;;;5.57;2.80;;;16.60;91.40;;;;;;5020670;28;20949;-62
2022/09/11 09:51:20;;;;;;;2.60;2.23;;;16.60;92.10;;;;;;5023272;28;20441;-61
2022/09/11 09:53:59;;;;;;;3.40;2.23;;;16.70;90.90;;;;;;5019850;28;20466;-61
2022/09/11 09:56:25;;;;;;;2.97;2.07;;;16.70;92.80;;;;;;5027126;28;20200;-62
2022/09/11 09:59:01;;;;;;;3.00;2.00;;;16.80;90.80;;;;;;5027832;28;20414;-62
2022/09/11 10:01:43;;;;;;;3.37;1.80;;;16.80;90.00;;;;;;5028503;28;20417;-61
2022/09/11 10:04:15;;;;;;;4.20;2.17;;;16.90;85.70;;;;;;5023759;28;20418;-62
2022/09/11 10:06:44;;;;;;;2.33;2.03;;;16.90;86.10;;;;;;5024234;28;20447;-62
2022/09/11 10:09:23;;;;;;;4.50;2.53;;;16.90;86.40;;;;;;5024680;28;20431;-62
2022/09/11 10:12:04;;;;;;;3.63;2.20;;;17.00;84.00;;;;;;5028059;28;20446;-62
2022/09/11 10:14:58;;;;;;;2.17;1.97;;;17.10;85.70;;;;;;5024573;28;20836;-62
2022/09/11 10:17:30;;;;;;;2.27;2.10;;;17.20;83.80;;;;;;5019075;28;20537;-62
2022/09/11 10:20:22;;;;;;;3.43;1.90;;;17.20;82.50;;;;;;5017380;28;20944;-61
2022/09/11 10:22:49;;;;;;;2.53;2.10;;;17.30;82.70;;;;;;5028664;28;20453;-62
2022/09/11 10:25:26;;;;;;;3.20;2.50;;;17.50;83.20;;;;;;5025763;28;20433;-62
2022/09/11 10:28:13;;;;;;;4.03;2.47;;;17.90;89.60;;;;;;5024284;28;20472;-62
2022/09/11 10:31:01;;;;;;;2.43;2.00;;;18.30;82.30;;;;;;5019642;28;20804;-62
2022/09/11 10:33:32;;;;;;;4.20;2.40;;;18.40;73.70;;;;;;5025179;28;20454;-62
2022/09/11 10:36:00;;;;;;;3.63;2.53;;;18.60;78.30;;;;;;5023705;28;20434;-62
2022/09/11 10:38:30;;;;;;;2.20;2.03;;;18.70;77.30;;;;;;5026322;28;20438;-62
2022/09/11 10:43:24;;;;;;;6.43;2.30;;;18.60;75.20;;;;;;5041577;22;20493;-56
2022/09/11 10:46:27;;;;;;;5.17;3.03;;;18.40;75.00;;;;;;5024483;28;20176;-57
2022/09/11 10:49:04;;;;;;;4.27;2.40;;;18.20;75.00;;;;;;5024386;28;20421;-55
2022/09/11 10:51:36;;;;;;;3.77;1.80;;;18.10;76.20;;;;;;5021535;28;20459;-56
2022/09/11 10:54:43;;;;;;;2.10;2.00;;;18.00;77.90;;;;;;5019745;28;20454;-56
2022/09/11 10:57:32;;;;;;;2.80;2.37;;;17.90;75.10;;;;;;4995132;28;20473;-56
2022/09/11 11:00:07;;;;;;;3.93;2.20;;;18.10;80.70;;;;;;5002131;28;20423;-56
2022/09/11 11:02:39;;;;;;;2.37;1.90;;;18.50;80.50;;;;;;5005714;28;20446;-56
2022/09/11 11:05:19;;;;;;;3.37;1.60;;;18.90;73.10;;;;;;5003270;28;20523;-56
2022/09/11 11:08:14;;;;;;;3.13;1.90;;;19.30;71.70;;;;;;5005324;28;20505;-56
2022/09/11 11:11:07;;;;;;;1.73;1.63;;;19.60;70.20;;;;;;5003618;28;20446;-56
2022/09/11 11:13:54;;;;;;;2.63;1.70;;;19.80;67.20;;;;;;5005537;28;20591;-55
2022/09/11 11:16:47;;;;;;;2.63;1.63;;;20.00;66.20;;;;;;5004283;28;20422;-55
2022/09/11 11:19:15;;;;;;;2.13;1.40;;;19.80;64.30;;;;;;5002466;28;20435;-56
2022/09/11 11:22:22;;;;;;;1.40;1.30;;;19.60;63.70;;;;;;5005795;28;20448;-56
2022/09/11 11:25:13;;;;;;;1.60;1.50;;;19.30;64.10;;;;;;4984988;28;20419;-56
2022/09/11 11:28:10;;;;;;;1.70;1.60;;;19.00;63.70;;;;;;5005608;28;20415;-56
2022/09/11 11:31:03;;;;;;;1.70;1.60;;;18.80;64.20;;;;;;5005298;28;20466;-55
2022/09/11 11:33:59;;;;;;;2.07;1.50;;;18.70;65.00;;;;;;5005352;28;20524;-56
2022/09/11 11:36:36;;;;;;;1.50;1.40;;;18.60;65.20;;;;;;5001495;28;22321;-55
2022/09/11 11:39:29;;;;;;;1.50;1.40;;;18.50;65.50;;;;;;5005310;28;20465;-56
2022/09/11 11:42:16;;;;;;;2.23;1.70;;;18.50;65.10;;;;;;5004667;28;20478;-56
2022/09/11 11:44:51;;;;;;;4.17;2.00;;;18.40;64.60;;;;;;5006458;28;20440;-55
2022/09/11 11:47:24;;;;;;;2.57;1.97;;;18.40;66.20;;;;;;5006292;28;20438;-55
2022/09/11 11:50:04;;;;;;;1.87;1.77;;;18.50;66.80;;;;;;5003418;28;20532;-55
2022/09/11 11:52:30;;;;;;;1.83;1.73;;;18.50;67.20;;;;;;5002226;28;21541;-56
2022/09/11 11:55:16;;;;;;;2.03;1.83;;;18.70;67.30;;;;;;5003507;28;20479;-55
2022/09/11 11:57:52;;;;;;;2.70;1.93;;;19.00;67.10;;;;;;4999033;28;20287;-55
2022/09/11 12:00:18;;;;;;;1.70;1.60;;;19.40;67.30;;;;;;5017654;28;20451;-55
2022/09/11 12:03:08;;;;;;;1.50;1.40;;;19.90;60.90;;;;;;5006215;28;20494;-53
2022/09/11 12:05:35;;;;;;;6.30;1.60;;;20.40;61.70;;;;;;5004967;28;20184;-55
2022/09/11 12:08:01;;;;;;;2.57;2.00;;;20.90;60.10;;;;;;5004686;28;21014;-55
2022/09/11 12:10:32;;;;;;;2.13;1.90;;;21.20;60.10;;;;;;5003175;28;20439;-56
2022/09/11 12:13:07;;;;;;;1.80;1.70;;;21.60;58.50;;;;;;5008669;28;20466;-55
2022/09/11 12:15:35;;;;;;;1.93;1.50;;;21.90;58.20;;;;;;5004007;28;20470;-56
2022/09/11 12:18:14;;;;;;;2.40;1.50;;;22.30;58.60;;;;;;5008554;28;20497;-56
2022/09/11 12:20:45;;;;;;;2.23;1.77;;;22.70;57.30;;;;;;5010414;28;20414;-56
2022/09/11 12:23:29;;;;;;;2.40;1.83;;;22.90;57.00;;;;;;5009718;28;20450;-57
2022/09/11 12:26:14;;;;;;;1.60;1.50;;;23.10;56.90;;;;;;5006266;28;20435;-56
2022/09/11 12:28:40;;;;;;;1.97;1.60;;;22.90;55.70;;;;;;5011676;28;20434;-56
2022/09/11 12:31:11;;;;;;;2.30;1.63;;;22.50;56.10;;;;;;5008852;28;20435;-56
2022/09/11 12:33:40;;;;;;;1.80;1.70;;;22.10;56.40;;;;;;5008967;28;20455;-56
2022/09/11 12:36:11;;;;;;;1.40;1.30;;;21.80;57.00;;;;;;5002421;28;20463;-57
2022/09/11 12:38:45;;;;;;;1.50;1.40;;;22.00;58.00;;;;;;5004991;28;20435;-55
2022/09/11 12:41:21;;;;;;;2.03;1.53;;;22.20;56.30;;;;;;5008442;28;20528;-56
2022/09/11 12:43:48;;;;;;;2.40;1.60;;;22.10;56.20;;;;;;5008838;28;20435;-59
2022/09/11 12:46:19;;;;;;;2.37;1.97;;;21.80;55.80;;;;;;5008514;28;20427;-56
2022/09/11 12:48:55;;;;;;;3.43;1.90;;;21.60;56.30;;;;;;5004879;28;20435;-56
2022/09/11 12:51:24;;;;;;;1.63;1.53;;;21.50;55.00;;;;;;5004861;28;20473;-56
2022/09/11 12:53:54;;;;;;;1.93;1.40;;;21.20;54.50;;;;;;5005607;28;20456;-56
2022/09/11 12:56:23;;;;;;;1.33;1.23;;;20.90;55.70;;;;;;5008761;28;20802;-56
2022/09/11 12:58:54;;;;;;;3.37;1.50;;;20.60;56.40;;;;;;5007961;28;20510;-56
2022/09/11 13:01:41;;;;;;;2.53;1.40;;;20.60;57.20;;;;;;5008075;28;20453;-57
2022/09/11 13:04:09;;;;;;;3.10;1.77;;;21.20;58.10;;;;;;5023056;28;21207;-56
2022/09/11 13:06:46;;;;;;;1.37;1.27;;;21.90;57.20;;;;;;5009277;28;20462;-57
2022/09/11 13:09:27;;;;;;;1.77;1.67;;;22.40;55.60;;;;;;5005611;28;20526;-56
2022/09/11 13:11:56;;;;;;;1.50;1.40;;;22.60;53.10;;;;;;5011477;28;20438;-57
2022/09/11 13:14:27;;;;;;;1.67;1.57;;;22.70;54.30;;;;;;5006600;28;20561;-57
2022/09/11 13:17:01;;;;;;;8.10;1.50;;;23.00;55.00;;;;;;5004176;28;20450;-58